sensor_id;sensor_type;location;lat;lon;timestamp;P1;durP1;ratioP1;P2;durP2;ratioP2
20653;SDS011;21083;50.898;4.902;2023-04-24T00:02:08;24.20;;;9.35;;
20653;SDS011;21083;50.898;4.902;2023-04-24T00:04:36;21.48;;;10.05;;
20653;SDS011;21083;50.898;4.902;2023-04-24T00:07:05;23.70;;;10.40;;
20653;SDS011;21083;50.898;4.902;2023-04-24T00:09:32;21.80;;;11.85;;
20653;SDS011;21083;50.898;4.902;2023-04-24T00:11:59;28.38;;;11.95;;
20653;SDS011;21083;50.898;4.902;2023-04-24T00:14:27;21.25;;;11.07;;
20653;SDS011;21083;50.898;4.902;2023-04-24T00:16:56;24.73;;;11.52;;
20653;SDS011;21083;50.898;4.902;2023-04-24T00:19:23;23.10;;;11.35;;
20653;SDS011;21083;50.898;4.902;2023-04-24T00:21:50;23.20;;;11.27;;
20653;SDS011;21083;50.898;4.902;2023-04-24T00:24:17;28.00;;;11.90;;
20653;SDS011;21083;50.898;4.902;2023-04-24T00:26:44;27.17;;;11.80;;
20653;SDS011;21083;50.898;4.902;2023-04-24T00:29:11;26.88;;;12.82;;
20653;SDS011;21083;50.898;4.902;2023-04-24T00:31:38;23.10;;;11.30;;
20653;SDS011;21083;50.898;4.902;2023-04-24T00:34:07;24.33;;;11.05;;
20653;SDS011;21083;50.898;4.902;2023-04-24T00:36:35;25.35;;;12.30;;
20653;SDS011;21083;50.898;4.902;2023-04-24T00:39:02;24.40;;;11.40;;
20653;SDS011;21083;50.898;4.902;2023-04-24T00:41:29;24.60;;;12.93;;
20653;SDS011;21083;50.898;4.902;2023-04-24T00:43:56;25.40;;;10.45;;
20653;SDS011;21083;50.898;4.902;2023-04-24T00:46:23;32.78;;;13.00;;
20653;SDS011;21083;50.898;4.902;2023-04-24T00:48:50;26.48;;;12.40;;
20653;SDS011;21083;50.898;4.902;2023-04-24T00:51:19;21.75;;;11.13;;
20653;SDS011;21083;50.898;4.902;2023-04-24T00:53:46;23.42;;;11.48;;
20653;SDS011;21083;50.898;4.902;2023-04-24T00:56:13;26.65;;;11.57;;
20653;SDS011;21083;50.898;4.902;2023-04-24T00:58:41;32.20;;;11.85;;
20653;SDS011;21083;50.898;4.902;2023-04-24T01:01:08;22.88;;;11.35;;
20653;SDS011;21083;50.898;4.902;2023-04-24T01:03:36;24.75;;;11.70;;
20653;SDS011;21083;50.898;4.902;2023-04-24T01:06:04;25.20;;;11.27;;
20653;SDS011;21083;50.898;4.902;2023-04-24T01:08:33;25.30;;;11.25;;
20653;SDS011;21083;50.898;4.902;2023-04-24T01:11:02;25.95;;;11.50;;
20653;SDS011;21083;50.898;4.902;2023-04-24T01:13:31;26.80;;;11.43;;
20653;SDS011;21083;50.898;4.902;2023-04-24T01:15:58;33.17;;;12.27;;
20653;SDS011;21083;50.898;4.902;2023-04-24T01:18:25;25.60;;;11.13;;
20653;SDS011;21083;50.898;4.902;2023-04-24T01:20:53;28.98;;;11.88;;
20653;SDS011;21083;50.898;4.902;2023-04-24T01:23:24;24.65;;;12.02;;
20653;SDS011;21083;50.898;4.902;2023-04-24T01:25:51;21.27;;;10.10;;
20653;SDS011;21083;50.898;4.902;2023-04-24T01:28:18;31.02;;;12.00;;
20653;SDS011;21083;50.898;4.902;2023-04-24T01:30:45;25.45;;;12.18;;
20653;SDS011;21083;50.898;4.902;2023-04-24T01:33:13;24.20;;;12.68;;
20653;SDS011;21083;50.898;4.902;2023-04-24T01:35:40;24.50;;;12.50;;
20653;SDS011;21083;50.898;4.902;2023-04-24T01:38:07;27.02;;;10.35;;
20653;SDS011;21083;50.898;4.902;2023-04-24T01:40:35;25.05;;;11.70;;
20653;SDS011;21083;50.898;4.902;2023-04-24T01:43:02;18.13;;;9.65;;
20653;SDS011;21083;50.898;4.902;2023-04-24T01:45:29;25.52;;;11.48;;
20653;SDS011;21083;50.898;4.902;2023-04-24T01:47:56;23.38;;;9.60;;
20653;SDS011;21083;50.898;4.902;2023-04-24T01:50:23;21.38;;;10.93;;
20653;SDS011;21083;50.898;4.902;2023-04-24T01:52:50;21.92;;;10.45;;
20653;SDS011;21083;50.898;4.902;2023-04-24T01:55:17;20.85;;;10.52;;
20653;SDS011;21083;50.898;4.902;2023-04-24T01:57:46;19.30;;;10.65;;
20653;SDS011;21083;50.898;4.902;2023-04-24T02:00:13;33.97;;;10.60;;
20653;SDS011;21083;50.898;4.902;2023-04-24T02:02:40;24.63;;;9.88;;
20653;SDS011;21083;50.898;4.902;2023-04-24T02:05:08;19.02;;;9.43;;
20653;SDS011;21083;50.898;4.902;2023-04-24T02:07:36;21.25;;;9.10;;
20653;SDS011;21083;50.898;4.902;2023-04-24T02:10:03;21.67;;;9.77;;
20653;SDS011;21083;50.898;4.902;2023-04-24T02:12:31;20.63;;;8.70;;
20653;SDS011;21083;50.898;4.902;2023-04-24T02:14:59;21.75;;;10.20;;
20653;SDS011;21083;50.898;4.902;2023-04-24T02:17:26;22.90;;;9.27;;
20653;SDS011;21083;50.898;4.902;2023-04-24T02:19:53;20.00;;;9.18;;
20653;SDS011;21083;50.898;4.902;2023-04-24T02:22:20;15.70;;;8.40;;
20653;SDS011;21083;50.898;4.902;2023-04-24T02:24:47;18.10;;;9.23;;
20653;SDS011;21083;50.898;4.902;2023-04-24T02:27:14;24.67;;;9.77;;
20653;SDS011;21083;50.898;4.902;2023-04-24T02:29:41;18.70;;;8.45;;
20653;SDS011;21083;50.898;4.902;2023-04-24T02:32:10;22.60;;;9.60;;
20653;SDS011;21083;50.898;4.902;2023-04-24T02:34:37;22.23;;;9.60;;
20653;SDS011;21083;50.898;4.902;2023-04-24T02:37:04;21.77;;;9.75;;
20653;SDS011;21083;50.898;4.902;2023-04-24T02:39:31;22.90;;;10.18;;
20653;SDS011;21083;50.898;4.902;2023-04-24T02:41:58;22.63;;;10.45;;
20653;SDS011;21083;50.898;4.902;2023-04-24T02:44:25;20.10;;;10.50;;
20653;SDS011;21083;50.898;4.902;2023-04-24T02:46:52;22.80;;;10.48;;
20653;SDS011;21083;50.898;4.902;2023-04-24T02:49:20;23.98;;;11.93;;
20653;SDS011;21083;50.898;4.902;2023-04-24T02:51:47;25.42;;;12.07;;
20653;SDS011;21083;50.898;4.902;2023-04-24T02:54:14;23.55;;;12.15;;
20653;SDS011;21083;50.898;4.902;2023-04-24T02:56:41;22.45;;;12.13;;
20653;SDS011;21083;50.898;4.902;2023-04-24T02:59:08;21.63;;;11.98;;
20653;SDS011;21083;50.898;4.902;2023-04-24T03:01:35;25.55;;;12.20;;
20653;SDS011;21083;50.898;4.902;2023-04-24T03:04:02;28.70;;;12.18;;
20653;SDS011;21083;50.898;4.902;2023-04-24T03:06:31;25.27;;;13.75;;
20653;SDS011;21083;50.898;4.902;2023-04-24T03:09:00;20.45;;;10.90;;
20653;SDS011;21083;50.898;4.902;2023-04-24T03:11:27;22.38;;;11.65;;
20653;SDS011;21083;50.898;4.902;2023-04-24T03:13:54;23.58;;;11.23;;
20653;SDS011;21083;50.898;4.902;2023-04-24T03:16:21;23.70;;;11.75;;
20653;SDS011;21083;50.898;4.902;2023-04-24T03:18:48;24.83;;;11.55;;
20653;SDS011;21083;50.898;4.902;2023-04-24T03:21:15;27.98;;;12.75;;
20653;SDS011;21083;50.898;4.902;2023-04-24T03:23:43;16.98;;;10.30;;
20653;SDS011;21083;50.898;4.902;2023-04-24T03:26:11;22.38;;;9.95;;
20653;SDS011;21083;50.898;4.902;2023-04-24T03:28:38;23.60;;;11.07;;
20653;SDS011;21083;50.898;4.902;2023-04-24T03:31:05;20.83;;;11.18;;
20653;SDS011;21083;50.898;4.902;2023-04-24T03:33:33;20.40;;;10.88;;
20653;SDS011;21083;50.898;4.902;2023-04-24T03:36:01;20.77;;;11.10;;
20653;SDS011;21083;50.898;4.902;2023-04-24T03:38:28;23.35;;;11.02;;
20653;SDS011;21083;50.898;4.902;2023-04-24T03:40:56;23.42;;;11.23;;
20653;SDS011;21083;50.898;4.902;2023-04-24T03:43:23;22.30;;;10.55;;
20653;SDS011;21083;50.898;4.902;2023-04-24T03:45:52;17.25;;;8.73;;
20653;SDS011;21083;50.898;4.902;2023-04-24T03:48:19;17.63;;;9.20;;
20653;SDS011;21083;50.898;4.902;2023-04-24T03:50:46;20.92;;;9.35;;
20653;SDS011;21083;50.898;4.902;2023-04-24T03:53:13;19.58;;;8.93;;
20653;SDS011;21083;50.898;4.902;2023-04-24T03:55:40;18.77;;;9.27;;
20653;SDS011;21083;50.898;4.902;2023-04-24T03:58:08;18.50;;;8.95;;
20653;SDS011;21083;50.898;4.902;2023-04-24T04:00:36;26.42;;;8.57;;
20653;SDS011;21083;50.898;4.902;2023-04-24T04:03:05;19.50;;;9.25;;
20653;SDS011;21083;50.898;4.902;2023-04-24T04:05:32;19.40;;;9.32;;
20653;SDS011;21083;50.898;4.902;2023-04-24T04:07:59;23.02;;;9.60;;
20653;SDS011;21083;50.898;4.902;2023-04-24T04:10:26;20.40;;;9.35;;
20653;SDS011;21083;50.898;4.902;2023-04-24T04:12:53;19.98;;;8.35;;
20653;SDS011;21083;50.898;4.902;2023-04-24T04:15:21;19.27;;;9.02;;
20653;SDS011;21083;50.898;4.902;2023-04-24T04:17:48;22.35;;;8.98;;
20653;SDS011;21083;50.898;4.902;2023-04-24T04:20:15;20.38;;;9.02;;
20653;SDS011;21083;50.898;4.902;2023-04-24T04:22:42;19.05;;;8.52;;
20653;SDS011;21083;50.898;4.902;2023-04-24T04:25:09;17.00;;;8.52;;
20653;SDS011;21083;50.898;4.902;2023-04-24T04:27:36;17.60;;;8.45;;
20653;SDS011;21083;50.898;4.902;2023-04-24T04:30:04;20.33;;;8.15;;
20653;SDS011;21083;50.898;4.902;2023-04-24T04:32:33;14.75;;;7.80;;
20653;SDS011;21083;50.898;4.902;2023-04-24T04:35:00;14.05;;;6.82;;
20653;SDS011;21083;50.898;4.902;2023-04-24T04:37:28;13.45;;;6.80;;
20653;SDS011;21083;50.898;4.902;2023-04-24T04:39:55;13.35;;;6.43;;
20653;SDS011;21083;50.898;4.902;2023-04-24T04:42:23;11.45;;;5.70;;
20653;SDS011;21083;50.898;4.902;2023-04-24T04:44:50;16.08;;;6.35;;
20653;SDS011;21083;50.898;4.902;2023-04-24T04:47:17;13.13;;;6.00;;
20653;SDS011;21083;50.898;4.902;2023-04-24T04:49:45;12.65;;;5.80;;
20653;SDS011;21083;50.898;4.902;2023-04-24T04:52:13;14.30;;;6.50;;
20653;SDS011;21083;50.898;4.902;2023-04-24T04:54:41;16.30;;;6.20;;
20653;SDS011;21083;50.898;4.902;2023-04-24T04:57:08;11.52;;;5.13;;
20653;SDS011;21083;50.898;4.902;2023-04-24T04:59:37;15.23;;;5.60;;
20653;SDS011;21083;50.898;4.902;2023-04-24T05:02:04;14.35;;;6.10;;
20653;SDS011;21083;50.898;4.902;2023-04-24T05:04:31;13.02;;;5.95;;
20653;SDS011;21083;50.898;4.902;2023-04-24T05:06:59;9.95;;;5.00;;
20653;SDS011;21083;50.898;4.902;2023-04-24T05:09:26;9.82;;;4.70;;
20653;SDS011;21083;50.898;4.902;2023-04-24T05:11:54;10.77;;;5.25;;
20653;SDS011;21083;50.898;4.902;2023-04-24T05:14:21;12.88;;;5.45;;
20653;SDS011;21083;50.898;4.902;2023-04-24T05:16:48;13.73;;;6.15;;
20653;SDS011;21083;50.898;4.902;2023-04-24T05:19:16;12.15;;;6.03;;
20653;SDS011;21083;50.898;4.902;2023-04-24T05:21:42;13.65;;;6.07;;
20653;SDS011;21083;50.898;4.902;2023-04-24T05:24:11;15.65;;;7.28;;
20653;SDS011;21083;50.898;4.902;2023-04-24T05:26:38;14.50;;;7.07;;
20653;SDS011;21083;50.898;4.902;2023-04-24T05:29:05;17.48;;;7.18;;
20653;SDS011;21083;50.898;4.902;2023-04-24T05:31:32;16.63;;;7.72;;
20653;SDS011;21083;50.898;4.902;2023-04-24T05:33:59;15.93;;;8.27;;
20653;SDS011;21083;50.898;4.902;2023-04-24T05:36:26;22.52;;;9.27;;
20653;SDS011;21083;50.898;4.902;2023-04-24T05:38:53;19.02;;;9.55;;
20653;SDS011;21083;50.898;4.902;2023-04-24T05:41:22;19.25;;;9.60;;
20653;SDS011;21083;50.898;4.902;2023-04-24T05:43:50;20.83;;;11.00;;
20653;SDS011;21083;50.898;4.902;2023-04-24T05:46:17;25.77;;;10.77;;
20653;SDS011;21083;50.898;4.902;2023-04-24T05:48:44;23.15;;;10.52;;
20653;SDS011;21083;50.898;4.902;2023-04-24T05:51:11;18.27;;;9.43;;
20653;SDS011;21083;50.898;4.902;2023-04-24T05:53:38;21.42;;;9.85;;
20653;SDS011;21083;50.898;4.902;2023-04-24T05:56:05;18.95;;;9.13;;
20653;SDS011;21083;50.898;4.902;2023-04-24T05:58:33;20.45;;;8.98;;
20653;SDS011;21083;50.898;4.902;2023-04-24T06:01:00;22.70;;;9.40;;
20653;SDS011;21083;50.898;4.902;2023-04-24T06:03:28;24.90;;;10.00;;
20653;SDS011;21083;50.898;4.902;2023-04-24T06:05:55;20.98;;;9.00;;
20653;SDS011;21083;50.898;4.902;2023-04-24T06:08:22;19.15;;;8.93;;
20653;SDS011;21083;50.898;4.902;2023-04-24T06:10:49;21.25;;;9.23;;
20653;SDS011;21083;50.898;4.902;2023-04-24T06:13:16;24.55;;;9.40;;
20653;SDS011;21083;50.898;4.902;2023-04-24T06:15:44;18.10;;;8.30;;
20653;SDS011;21083;50.898;4.902;2023-04-24T06:18:11;23.98;;;9.55;;
20653;SDS011;21083;50.898;4.902;2023-04-24T06:20:38;25.45;;;9.68;;
20653;SDS011;21083;50.898;4.902;2023-04-24T06:23:05;20.20;;;9.25;;
20653;SDS011;21083;50.898;4.902;2023-04-24T06:25:32;19.95;;;9.95;;
20653;SDS011;21083;50.898;4.902;2023-04-24T06:27:59;22.77;;;9.50;;
20653;SDS011;21083;50.898;4.902;2023-04-24T06:30:27;27.80;;;10.80;;
20653;SDS011;21083;50.898;4.902;2023-04-24T06:32:56;24.45;;;10.80;;
20653;SDS011;21083;50.898;4.902;2023-04-24T06:35:23;21.88;;;9.80;;
20653;SDS011;21083;50.898;4.902;2023-04-24T06:37:51;24.30;;;10.85;;
20653;SDS011;21083;50.898;4.902;2023-04-24T06:40:18;23.45;;;9.80;;
20653;SDS011;21083;50.898;4.902;2023-04-24T06:42:45;24.63;;;11.38;;
20653;SDS011;21083;50.898;4.902;2023-04-24T06:45:12;23.77;;;10.52;;
20653;SDS011;21083;50.898;4.902;2023-04-24T06:47:39;19.95;;;10.07;;
20653;SDS011;21083;50.898;4.902;2023-04-24T06:50:07;23.85;;;10.10;;
20653;SDS011;21083;50.898;4.902;2023-04-24T06:52:35;20.98;;;9.52;;
20653;SDS011;21083;50.898;4.902;2023-04-24T06:55:02;24.45;;;10.85;;
20653;SDS011;21083;50.898;4.902;2023-04-24T06:57:30;23.45;;;10.95;;
20653;SDS011;21083;50.898;4.902;2023-04-24T06:59:57;22.67;;;11.35;;
20653;SDS011;21083;50.898;4.902;2023-04-24T07:02:24;26.27;;;11.45;;
20653;SDS011;21083;50.898;4.902;2023-04-24T07:04:51;26.13;;;12.20;;
20653;SDS011;21083;50.898;4.902;2023-04-24T07:07:20;28.95;;;12.98;;
20653;SDS011;21083;50.898;4.902;2023-04-24T07:09:48;27.52;;;13.90;;
20653;SDS011;21083;50.898;4.902;2023-04-24T07:12:15;24.05;;;12.43;;
20653;SDS011;21083;50.898;4.902;2023-04-24T07:14:45;22.45;;;11.80;;
20653;SDS011;21083;50.898;4.902;2023-04-24T07:17:12;26.85;;;12.80;;
20653;SDS011;21083;50.898;4.902;2023-04-24T07:19:39;33.20;;;12.30;;
20653;SDS011;21083;50.898;4.902;2023-04-24T07:22:07;29.27;;;12.52;;
20653;SDS011;21083;50.898;4.902;2023-04-24T07:24:35;28.45;;;12.68;;
20653;SDS011;21083;50.898;4.902;2023-04-24T07:27:02;34.72;;;14.40;;
20653;SDS011;21083;50.898;4.902;2023-04-24T07:29:30;29.40;;;13.35;;
20653;SDS011;21083;50.898;4.902;2023-04-24T07:31:57;25.33;;;10.68;;
20653;SDS011;21083;50.898;4.902;2023-04-24T07:34:24;27.58;;;12.73;;
20653;SDS011;21083;50.898;4.902;2023-04-24T07:36:51;29.67;;;12.63;;
20653;SDS011;21083;50.898;4.902;2023-04-24T07:39:18;33.97;;;13.57;;
20653;SDS011;21083;50.898;4.902;2023-04-24T07:41:47;33.70;;;13.52;;
20653;SDS011;21083;50.898;4.902;2023-04-24T07:44:14;28.30;;;12.25;;
20653;SDS011;21083;50.898;4.902;2023-04-24T07:46:41;25.02;;;11.88;;
20653;SDS011;21083;50.898;4.902;2023-04-24T07:49:07;34.60;;;12.98;;
20653;SDS011;21083;50.898;4.902;2023-04-24T07:51:34;26.27;;;11.77;;
20653;SDS011;21083;50.898;4.902;2023-04-24T07:54:03;22.75;;;9.43;;
20653;SDS011;21083;50.898;4.902;2023-04-24T07:56:31;29.25;;;9.88;;
20653;SDS011;21083;50.898;4.902;2023-04-24T07:59:00;20.58;;;9.63;;
20653;SDS011;21083;50.898;4.902;2023-04-24T08:01:27;21.13;;;7.85;;
20653;SDS011;21083;50.898;4.902;2023-04-24T08:03:54;19.88;;;9.52;;
20653;SDS011;21083;50.898;4.902;2023-04-24T08:06:21;19.08;;;8.07;;
20653;SDS011;21083;50.898;4.902;2023-04-24T08:08:48;21.88;;;8.57;;
20653;SDS011;21083;50.898;4.902;2023-04-24T08:11:16;20.20;;;8.30;;
20653;SDS011;21083;50.898;4.902;2023-04-24T08:13:43;18.58;;;7.78;;
20653;SDS011;21083;50.898;4.902;2023-04-24T08:16:12;22.13;;;8.45;;
20653;SDS011;21083;50.898;4.902;2023-04-24T08:18:39;19.75;;;7.47;;
20653;SDS011;21083;50.898;4.902;2023-04-24T08:21:06;24.02;;;8.05;;
20653;SDS011;21083;50.898;4.902;2023-04-24T08:23:33;19.80;;;6.95;;
20653;SDS011;21083;50.898;4.902;2023-04-24T08:26:00;18.00;;;6.43;;
20653;SDS011;21083;50.898;4.902;2023-04-24T08:28:27;19.27;;;7.13;;
20653;SDS011;21083;50.898;4.902;2023-04-24T08:30:54;17.00;;;5.22;;
20653;SDS011;21083;50.898;4.902;2023-04-24T08:33:22;17.60;;;5.50;;
20653;SDS011;21083;50.898;4.902;2023-04-24T08:35:50;16.90;;;4.82;;
20653;SDS011;21083;50.898;4.902;2023-04-24T08:38:17;13.55;;;4.90;;
20653;SDS011;21083;50.898;4.902;2023-04-24T08:40:44;15.75;;;6.00;;
20653;SDS011;21083;50.898;4.902;2023-04-24T08:43:13;16.80;;;5.38;;
20653;SDS011;21083;50.898;4.902;2023-04-24T08:45:40;15.20;;;5.80;;
20653;SDS011;21083;50.898;4.902;2023-04-24T08:48:07;18.50;;;5.95;;
20653;SDS011;21083;50.898;4.902;2023-04-24T08:50:37;21.10;;;6.45;;
20653;SDS011;21083;50.898;4.902;2023-04-24T08:53:06;19.13;;;6.63;;
20653;SDS011;21083;50.898;4.902;2023-04-24T08:55:34;22.13;;;7.32;;
20653;SDS011;21083;50.898;4.902;2023-04-24T08:58:01;23.58;;;7.68;;
20653;SDS011;21083;50.898;4.902;2023-04-24T09:00:29;21.92;;;7.63;;
20653;SDS011;21083;50.898;4.902;2023-04-24T09:02:56;21.63;;;7.22;;
20653;SDS011;21083;50.898;4.902;2023-04-24T09:05:23;19.33;;;7.85;;
20653;SDS011;21083;50.898;4.902;2023-04-24T09:07:53;21.25;;;6.93;;
20653;SDS011;21083;50.898;4.902;2023-04-24T09:10:21;18.40;;;7.30;;
20653;SDS011;21083;50.898;4.902;2023-04-24T09:12:49;20.95;;;8.20;;
20653;SDS011;21083;50.898;4.902;2023-04-24T09:15:17;25.08;;;8.35;;
20653;SDS011;21083;50.898;4.902;2023-04-24T09:17:45;18.35;;;7.80;;
20653;SDS011;21083;50.898;4.902;2023-04-24T09:20:12;17.38;;;7.00;;
20653;SDS011;21083;50.898;4.902;2023-04-24T09:22:39;22.15;;;7.32;;
20653;SDS011;21083;50.898;4.902;2023-04-24T09:25:09;26.00;;;7.90;;
20653;SDS011;21083;50.898;4.902;2023-04-24T09:27:41;22.77;;;7.35;;
20653;SDS011;21083;50.898;4.902;2023-04-24T09:30:10;20.13;;;6.13;;
20653;SDS011;21083;50.898;4.902;2023-04-24T09:32:37;17.90;;;5.45;;
20653;SDS011;21083;50.898;4.902;2023-04-24T09:35:05;21.70;;;6.28;;
20653;SDS011;21083;50.898;4.902;2023-04-24T09:37:37;18.83;;;6.10;;
20653;SDS011;21083;50.898;4.902;2023-04-24T09:40:10;23.45;;;7.53;;
20653;SDS011;21083;50.898;4.902;2023-04-24T09:42:37;23.08;;;8.02;;
20653;SDS011;21083;50.898;4.902;2023-04-24T09:45:08;22.33;;;7.32;;
20653;SDS011;21083;50.898;4.902;2023-04-24T09:47:36;31.10;;;10.52;;
20653;SDS011;21083;50.898;4.902;2023-04-24T09:50:13;21.38;;;8.15;;
20653;SDS011;21083;50.898;4.902;2023-04-24T09:52:42;19.77;;;7.07;;
20653;SDS011;21083;50.898;4.902;2023-04-24T09:55:13;27.33;;;8.68;;
20653;SDS011;21083;50.898;4.902;2023-04-24T09:57:49;19.67;;;7.60;;
20653;SDS011;21083;50.898;4.902;2023-04-24T10:00:23;24.35;;;6.63;;
20653;SDS011;21083;50.898;4.902;2023-04-24T10:02:55;16.35;;;6.03;;
20653;SDS011;21083;50.898;4.902;2023-04-24T10:05:23;18.33;;;5.18;;
20653;SDS011;21083;50.898;4.902;2023-04-24T10:07:55;20.13;;;5.18;;
20653;SDS011;21083;50.898;4.902;2023-04-24T10:10:25;20.95;;;7.53;;
20653;SDS011;21083;50.898;4.902;2023-04-24T10:12:52;20.60;;;5.30;;
20653;SDS011;21083;50.898;4.902;2023-04-24T10:15:20;15.32;;;6.10;;
20653;SDS011;21083;50.898;4.902;2023-04-24T10:17:48;15.38;;;4.78;;
20653;SDS011;21083;50.898;4.902;2023-04-24T10:20:19;11.98;;;4.60;;
20653;SDS011;21083;50.898;4.902;2023-04-24T10:22:47;12.52;;;4.05;;
20653;SDS011;21083;50.898;4.902;2023-04-24T10:25:19;11.90;;;3.63;;
20653;SDS011;21083;50.898;4.902;2023-04-24T10:27:49;12.43;;;4.05;;
20653;SDS011;21083;50.898;4.902;2023-04-24T10:30:17;13.43;;;2.97;;
20653;SDS011;21083;50.898;4.902;2023-04-24T10:32:44;11.95;;;4.10;;
20653;SDS011;21083;50.898;4.902;2023-04-24T10:35:12;15.15;;;3.70;;
20653;SDS011;21083;50.898;4.902;2023-04-24T10:37:41;14.55;;;3.92;;
20653;SDS011;21083;50.898;4.902;2023-04-24T10:40:11;14.40;;;3.45;;
20653;SDS011;21083;50.898;4.902;2023-04-24T10:42:44;10.73;;;3.42;;
20653;SDS011;21083;50.898;4.902;2023-04-24T10:45:18;12.40;;;3.65;;
20653;SDS011;21083;50.898;4.902;2023-04-24T10:47:53;12.65;;;4.30;;
20653;SDS011;21083;50.898;4.902;2023-04-24T10:50:25;10.80;;;3.83;;
20653;SDS011;21083;50.898;4.902;2023-04-24T10:52:52;11.38;;;3.75;;
20653;SDS011;21083;50.898;4.902;2023-04-24T10:55:39;11.88;;;3.75;;
20653;SDS011;21083;50.898;4.902;2023-04-24T10:58:09;15.05;;;3.92;;
20653;SDS011;21083;50.898;4.902;2023-04-24T11:00:37;15.38;;;5.13;;
20653;SDS011;21083;50.898;4.902;2023-04-24T11:03:05;18.40;;;4.88;;
20653;SDS011;21083;50.898;4.902;2023-04-24T11:08:25;20.35;;;5.18;;
20653;SDS011;21083;50.898;4.902;2023-04-24T11:10:58;10.38;;;4.03;;
20653;SDS011;21083;50.898;4.902;2023-04-24T11:16:32;12.23;;;4.40;;
20653;SDS011;21083;50.898;4.902;2023-04-24T11:19:01;13.70;;;4.15;;
20653;SDS011;21083;50.898;4.902;2023-04-24T11:21:38;12.52;;;4.07;;
20653;SDS011;21083;50.898;4.902;2023-04-24T11:24:26;11.40;;;4.00;;
20653;SDS011;21083;50.898;4.902;2023-04-24T11:26:58;14.23;;;4.07;;
20653;SDS011;21083;50.898;4.902;2023-04-24T11:29:44;11.20;;;3.47;;
20653;SDS011;21083;50.898;4.902;2023-04-24T11:32:23;11.25;;;3.45;;
20653;SDS011;21083;50.898;4.902;2023-04-24T11:34:52;15.55;;;4.90;;
20653;SDS011;21083;50.898;4.902;2023-04-24T11:37:21;10.73;;;3.80;;
20653;SDS011;21083;50.898;4.902;2023-04-24T11:39:50;13.43;;;3.55;;
20653;SDS011;21083;50.898;4.902;2023-04-24T11:42:20;11.23;;;4.13;;
20653;SDS011;21083;50.898;4.902;2023-04-24T11:44:51;12.75;;;3.78;;
20653;SDS011;21083;50.898;4.902;2023-04-24T11:47:19;13.05;;;4.53;;
20653;SDS011;21083;50.898;4.902;2023-04-24T11:49:46;12.38;;;3.78;;
20653;SDS011;21083;50.898;4.902;2023-04-24T11:52:16;12.68;;;3.72;;
20653;SDS011;21083;50.898;4.902;2023-04-24T11:54:46;19.48;;;4.55;;
20653;SDS011;21083;50.898;4.902;2023-04-24T11:57:15;10.52;;;4.18;;
20653;SDS011;21083;50.898;4.902;2023-04-24T11:59:42;9.82;;;3.50;;
20653;SDS011;21083;50.898;4.902;2023-04-24T12:02:10;15.85;;;3.50;;
20653;SDS011;21083;50.898;4.902;2023-04-24T12:04:46;11.68;;;3.75;;
20653;SDS011;21083;50.898;4.902;2023-04-24T12:07:13;11.90;;;4.15;;
20653;SDS011;21083;50.898;4.902;2023-04-24T12:09:41;15.18;;;4.80;;
20653;SDS011;21083;50.898;4.902;2023-04-24T12:12:09;13.43;;;3.83;;
20653;SDS011;21083;50.898;4.902;2023-04-24T12:14:43;12.18;;;4.13;;
20653;SDS011;21083;50.898;4.902;2023-04-24T12:17:12;14.77;;;4.10;;
20653;SDS011;21083;50.898;4.902;2023-04-24T12:19:44;9.85;;;3.60;;
20653;SDS011;21083;50.898;4.902;2023-04-24T12:22:12;14.13;;;4.07;;
20653;SDS011;21083;50.898;4.902;2023-04-24T12:27:22;10.63;;;3.90;;
20653;SDS011;21083;50.898;4.902;2023-04-24T12:29:52;13.30;;;4.50;;
20653;SDS011;21083;50.898;4.902;2023-04-24T12:32:21;10.05;;;3.60;;
20653;SDS011;21083;50.898;4.902;2023-04-24T12:34:49;10.02;;;4.50;;
20653;SDS011;21083;50.898;4.902;2023-04-24T12:37:16;16.40;;;4.88;;
20653;SDS011;21083;50.898;4.902;2023-04-24T12:39:46;15.40;;;4.53;;
20653;SDS011;21083;50.898;4.902;2023-04-24T12:42:29;14.27;;;4.88;;
20653;SDS011;21083;50.898;4.902;2023-04-24T12:44:56;12.20;;;3.92;;
20653;SDS011;21083;50.898;4.902;2023-04-24T12:47:26;10.10;;;3.85;;
20653;SDS011;21083;50.898;4.902;2023-04-24T12:49:54;12.10;;;4.25;;
20653;SDS011;21083;50.898;4.902;2023-04-24T12:52:21;12.10;;;4.32;;
20653;SDS011;21083;50.898;4.902;2023-04-24T12:54:49;10.60;;;4.15;;
20653;SDS011;21083;50.898;4.902;2023-04-24T12:57:16;15.88;;;3.92;;
20653;SDS011;21083;50.898;4.902;2023-04-24T12:59:44;14.00;;;4.22;;
20653;SDS011;21083;50.898;4.902;2023-04-24T13:02:11;14.85;;;4.20;;
20653;SDS011;21083;50.898;4.902;2023-04-24T13:04:40;13.10;;;4.28;;
20653;SDS011;21083;50.898;4.902;2023-04-24T13:07:07;13.23;;;3.85;;
20653;SDS011;21083;50.898;4.902;2023-04-24T13:09:34;9.43;;;3.92;;
20653;SDS011;21083;50.898;4.902;2023-04-24T13:12:02;17.20;;;4.78;;
20653;SDS011;21083;50.898;4.902;2023-04-24T13:14:30;10.73;;;3.95;;
20653;SDS011;21083;50.898;4.902;2023-04-24T13:16:57;15.13;;;4.45;;
20653;SDS011;21083;50.898;4.902;2023-04-24T13:19:24;9.75;;;3.65;;
20653;SDS011;21083;50.898;4.902;2023-04-24T13:21:54;15.68;;;4.65;;
20653;SDS011;21083;50.898;4.902;2023-04-24T13:24:22;10.55;;;3.67;;
20653;SDS011;21083;50.898;4.902;2023-04-24T13:26:50;9.40;;;3.65;;
20653;SDS011;21083;50.898;4.902;2023-04-24T13:29:17;9.02;;;3.40;;
20653;SDS011;21083;50.898;4.902;2023-04-24T13:31:44;10.93;;;2.80;;
20653;SDS011;21083;50.898;4.902;2023-04-24T13:34:12;10.02;;;3.53;;
20653;SDS011;21083;50.898;4.902;2023-04-24T13:36:39;17.75;;;6.95;;
20653;SDS011;21083;50.898;4.902;2023-04-24T13:39:07;11.35;;;4.10;;
20653;SDS011;21083;50.898;4.902;2023-04-24T13:41:34;13.70;;;4.38;;
20653;SDS011;21083;50.898;4.902;2023-04-24T13:44:01;14.85;;;4.57;;
20653;SDS011;21083;50.898;4.902;2023-04-24T13:46:29;8.88;;;3.47;;
20653;SDS011;21083;50.898;4.902;2023-04-24T13:48:56;10.18;;;3.35;;
20653;SDS011;21083;50.898;4.902;2023-04-24T13:51:23;11.25;;;3.45;;
20653;SDS011;21083;50.898;4.902;2023-04-24T13:53:52;11.68;;;2.90;;
20653;SDS011;21083;50.898;4.902;2023-04-24T13:56:20;12.75;;;3.55;;
20653;SDS011;21083;50.898;4.902;2023-04-24T13:58:48;7.55;;;3.17;;
20653;SDS011;21083;50.898;4.902;2023-04-24T14:01:15;8.88;;;2.80;;
20653;SDS011;21083;50.898;4.902;2023-04-24T14:03:42;8.63;;;3.00;;
20653;SDS011;21083;50.898;4.902;2023-04-24T14:06:09;10.40;;;3.35;;
20653;SDS011;21083;50.898;4.902;2023-04-24T14:08:36;14.13;;;4.00;;
20653;SDS011;21083;50.898;4.902;2023-04-24T14:11:03;9.23;;;3.28;;
20653;SDS011;21083;50.898;4.902;2023-04-24T14:13:32;9.68;;;3.15;;
20653;SDS011;21083;50.898;4.902;2023-04-24T14:15:59;7.93;;;2.83;;
20653;SDS011;21083;50.898;4.902;2023-04-24T14:18:26;10.07;;;3.47;;
20653;SDS011;21083;50.898;4.902;2023-04-24T14:20:53;9.73;;;3.22;;
20653;SDS011;21083;50.898;4.902;2023-04-24T14:23:20;9.38;;;2.65;;
20653;SDS011;21083;50.898;4.902;2023-04-24T14:25:47;11.18;;;2.85;;
20653;SDS011;21083;50.898;4.902;2023-04-24T14:28:16;10.57;;;3.45;;
20653;SDS011;21083;50.898;4.902;2023-04-24T14:30:45;8.98;;;2.65;;
20653;SDS011;21083;50.898;4.902;2023-04-24T14:33:12;7.22;;;2.38;;
20653;SDS011;21083;50.898;4.902;2023-04-24T14:35:39;8.95;;;2.78;;
20653;SDS011;21083;50.898;4.902;2023-04-24T14:38:07;8.00;;;2.28;;
20653;SDS011;21083;50.898;4.902;2023-04-24T14:40:35;5.88;;;2.25;;
20653;SDS011;21083;50.898;4.902;2023-04-24T14:43:02;10.48;;;2.80;;
20653;SDS011;21083;50.898;4.902;2023-04-24T14:45:29;11.25;;;3.60;;